Terminal Aerodrome Forecast
Issued by NWS

Home | Current Version | Previous Version | Graphics & Text | Print | Product List | Glossary On
Versions: 1 2 3 4 5 6 7 8 9 10 11 12 13 14 15 16 17 18 19 20 21 22 23 24 25 26 27 28 29 30 31 32
000
FTUS43 KGRB 171100
TAFRHI
TAF
KRHI 171129Z 1712/1812 24005KT P6SM SKC
     FM171300 27008KT P6SM SCT040 BKN100
     FM172200 01008G17KT P6SM BKN040
     FM180400 04005KT P6SM BKN025=

USA.gov is the U.S. government's official web portal to all federal, state and local government web resources and services.